Погода Жавнерчикина неделю

Витебская область, Белоруссия

22 - 28 мая
  • 22мая
    Сегодня
    +13°
    +23°
    Небольшая облачность, возможен дождь с грозой
    ВремяПогодаТемператураВлажностьДавлениеВетер, м/сВероятность осадков
    00:00Ясно и безоблачно+15°C83 %749 мм3.9 м/с2 %
    03:00Облачно с прояснениями+14°C88 %749 мм3.7 м/с4 %
    06:00Небольшая облачность+12°C91 %749 мм4.0 м/с5 %
    09:00Ясно и безоблачно+17°C76 %750 мм3.8 м/с2 %
    12:00Небольшая облачность+22°C66 %750 мм4.5 м/с8 %
    15:00Небольшая облачность, возможен дождь с грозой+20°C75 %749 мм5.3 м/с45 %
    18:00Облачно с прояснениями, ливень+20°C82 %749 мм3.6 м/с59 %
    21:00Облачно с прояснениями+18°C90 %750 мм3.1 м/с28 %
  • 23мая
    Четверг
    +12°
    +23°
    Облачно с прояснениями
    ВремяПогодаТемператураВлажностьДавлениеВетер, м/сВероятность осадков
    00:00Ясно и безоблачно+15°C93 %750 мм3.2 м/с2 %
    03:00Практически безоблачно+14°C95 %750 мм3.8 м/с2 %
    06:00Ясно и безоблачно+13°C95 %751 мм4.5 м/с2 %
    09:00Небольшая облачность+18°C78 %752 мм5.9 м/с1 %
    12:00Практически безоблачно+22°C69 %752 мм5.4 м/с24 %
    15:00Облачно с прояснениями+22°C58 %753 мм5.6 м/с36 %
    18:00Облачно с прояснениями+22°C58 %752 мм5.8 м/с36 %
    21:00Практически безоблачно+19°C67 %753 мм3.5 м/с4 %
  • 24мая
    Пятница
    +11°
    +24°
    Ясно и безоблачно
    ВремяПогодаТемператураВлажностьДавлениеВетер, м/сВероятность осадков
    00:00Ясно и безоблачно+16°C71 %754 мм5.1 м/с2 %
    03:00Ясно и безоблачно+14°C73 %754 мм5.1 м/с2 %
    06:00Ясно и безоблачно+13°C76 %755 мм5.1 м/с2 %
    09:00Ясно и безоблачно+17°C64 %756 мм5.3 м/с2 %
    12:00Ясно и безоблачно+22°C55 %756 мм5.0 м/с2 %
    15:00Ясно и безоблачно+23°C50 %755 мм5.0 м/с7 %
    18:00Ясно и безоблачно+23°C51 %755 мм5.2 м/с11 %
    21:00Ясно и безоблачно+19°C64 %755 мм3.8 м/с5 %
  • 25мая
    Суббота
    +12°
    +25°
    Ясно и безоблачно
    ВремяПогодаТемператураВлажностьДавлениеВетер, м/сВероятность осадков
    00:00Ясно и безоблачно+15°C69 %755 мм4.5 м/с2 %
    03:00Ясно и безоблачно+13°C76 %755 мм4.1 м/с2 %
    06:00Ясно и безоблачно+12°C78 %754 мм4.5 м/с2 %
    09:00Практически безоблачно+18°C68 %755 мм4.2 м/с4 %
    12:00Облачно с прояснениями+23°C56 %755 мм4.3 м/с16 %
    15:00Ясно и безоблачно+24°C44 %754 мм4.7 м/с22 %
    18:00Облачно с прояснениями+24°C54 %754 мм3.8 м/с36 %
    21:00Облачно с прояснениями+19°C82 %753 мм1.8 м/с20 %
  • 26мая
    Воскресенье
    +10°
    +25°
    Ясно и безоблачно
    ВремяПогодаТемператураВлажностьДавлениеВетер, м/сВероятность осадков
    00:00Облачно с прояснениями+15°C74 %753 мм3.1 м/с11 %
    03:00Облачно с прояснениями+13°C68 %753 мм3.4 м/с9 %
    06:00Облачно с прояснениями+13°C67 %754 мм3.0 м/с11 %
    09:00Небольшая облачность+18°C63 %754 мм1.9 м/с4 %
    12:00Небольшая облачность+23°C40 %755 мм3.2 м/с9 %
    15:00Ясно и безоблачно+24°C38 %754 мм3.2 м/с17 %
    18:00Небольшая облачность+25°C40 %753 мм3.1 м/с21 %
    21:00Ясно и безоблачно+19°C69 %754 мм2.1 м/с7 %
Мы используем cookies
Соглашаюсь